x

8419317 - Wells, Me (welm1) Weather Station

7:00pm - Fri 30th Jan 2015 All times are EST. -5 hours from GMT.

  • Wind
    9mph, 11mph gusts
  • Sea Temp 35°f
  • 空気 Temp 31°f
  • Sea Pressure 1005.2mb
  • 8419317 - Wells, Me
  • 8419317 - Wells, Me

More Historic Weather Station data

Upgrade to MSW Pro to gain access to the past 30 days of data for over 8000 Wavebouys and Weather Stations around the globe.

Join Pro

Comparision Forecast

View Surf forecast
   
Fri 01/30 7:00pm 9 11 mph 1005.2mb 35f 31f
6:54pm 8 10 mph 1005.1mb 35f 30f
6:48pm 7 13 mph 1005.1mb 35f 30f
6:42pm 9 11 mph 1005.1mb 35f 30f
6:36pm 8 10 mph 1005.1mb 35f 30f
6:30pm 7 11 mph 1005.2mb 35f 30f
6:24pm 8 10 mph 1005mb 35f 30f
6:18pm 7 10 mph 1005mb 35f 30f
6:12pm 8 13 mph 1005mb 35f 30f
6:06pm 8 11 mph 1005mb 35f 30f
6:00pm 10 13 mph 1005mb 35f 30f
5:54pm 9 11 mph 1005.1mb 35f 30f
5:48pm 11 14 mph 1005.1mb 35f 30f
5:42pm 7 11 mph 1005.3mb 35f 30f
5:36pm 10 13 mph 1005.2mb 34f 30f
5:30pm 8 9 mph 1005.4mb 34f 30f
5:24pm 7 9 mph 1005.6mb 34f 30f
5:18pm 6 9 mph 1005.5mb 34f 30f
5:12pm 7 9 mph 1005.4mb 34f 30f
5:06pm 7 8 mph 1005.3mb 34f 30f
5:00pm 8 10 mph 1005.3mb 33f 30f
4:54pm 6 7 mph 1005.2mb 33f 30f
4:48pm 7 10 mph 1005.1mb 33f 30f
4:42pm 7 9 mph 1005.1mb 32f 30f
4:36pm 6 8 mph 1005.1mb 31f 30f
4:30pm 6 8 mph 1005.2mb 31f 30f
4:24pm 6 7 mph 1005.2mb 31f 29f
4:18pm 6 7 mph 1005.3mb 31f 29f
4:12pm 6 8 mph 1005.3mb 30f 29f
4:06pm 7 9 mph 1005.2mb 30f 29f
4:00pm 7 10 mph 1005.3mb 30f 29f
3:54pm 7 9 mph 1005.3mb 30f 29f
3:48pm 6 9 mph 1005.4mb 30f 29f
3:42pm 6 9 mph 1005.4mb 30f 29f
3:36pm 6 7 mph 1005.4mb 30f 29f
3:30pm 6 9 mph 1005.4mb 30f 29f
3:24pm 5 7 mph 1005.4mb 30f 29f
3:18pm 6 7 mph 1005.3mb 30f 29f
3:12pm 5 6 mph 1005.2mb 31f 29f
3:06pm 5 6 mph 1005.3mb 31f 29f
3:00pm 6 9 mph 1005.4mb 31f 29f
2:54pm 5 7 mph 1005.3mb 31f 29f
2:48pm 6 7 mph 1005.3mb 31f 29f
2:42pm 3 5 mph 1005.3mb 31f 29f
2:36pm 6
mph
1005.3mb 32f 29f
2:30pm 6 7 mph 1005.2mb 32f 29f
2:24pm 5 6 mph 1005.2mb 32f 29f
2:18pm 5 7 mph 1005.3mb 32f 29f
2:12pm 5 8 mph 1005.3mb 32f 29f
2:06pm 6 8 mph 1005.3mb 32f 29f
2:00pm 7 9 mph 1005.2mb 32f 29f
1:54pm 6
mph
1005.3mb 32f 29f
1:48pm 6 7 mph 1005.4mb 32f 29f
1:42pm 6 8 mph 1005.4mb 32f 29f
1:36pm 7 8 mph 1005.4mb 32f 29f
1:30pm 9 10 mph 1005.4mb 32f 29f
1:24pm 8 9 mph 1005.6mb 32f 29f
1:18pm 7 9 mph 1005.7mb 32f 30f
1:12pm 7
mph
1005.7mb 32f 30f
1:06pm 6 7 mph 1005.8mb 32f 30f
1:00pm 5 6 mph 1005.9mb 32f 30f
12:54pm 6 7 mph 1006mb 32f 30f
12:48pm 5 6 mph 1006.1mb 33f 30f
12:42pm 3 6 mph 1006.2mb 33f 30f
12:36pm 6 7 mph 1006.2mb 33f 30f
12:30pm 7 8 mph 1006.2mb 33f 30f
12:24pm 6 7 mph 1006.3mb 33f 30f
12:18pm 7 8 mph 1006.4mb 33f 30f
12:12pm 6
mph
1006.5mb 33f 30f
12:06pm 5
mph
1006.6mb 33f 30f
12:00pm 5 6 mph 1006.7mb 32f 31f
11:54am 5 6 mph 1006.7mb 32f 31f
11:48am 5 6 mph 1006.8mb 32f 31f
11:42am 6 7 mph 1007mb 32f 30f
11:36am 6 7 mph 1007.1mb 33f 30f
11:30am 6 8 mph 1007.1mb 32f 30f
11:24am 5 6 mph 1007.2mb 33f 31f
11:18am 3 6 mph 1007.3mb 33f 31f
11:12am 5 6 mph 1007.3mb 33f 30f
11:06am 5 7 mph 1007.4mb 33f 30f
11:00am 6 10 mph 1007.4mb 32f 30f
10:54am 5 6 mph 1007.6mb 32f 30f
10:48am 5 6 mph 1007.7mb 33f 30f
10:42am 6 7 mph 1007.8mb 33f 30f
10:36am 5 6 mph 1007.9mb 33f 30f
10:30am 6 7 mph 1008mb 33f 30f
10:24am 5 7 mph 1008.1mb 33f 30f
10:18am 7
mph
1008.2mb 33f 30f
10:12am 6 8 mph 1008.3mb 33f 30f
10:06am 6 7 mph 1008.4mb 33f 30f
10:00am 6 7 mph 1008.3mb 33f 30f
9:54am 5
mph
1008.4mb 33f 30f
9:48am 6 7 mph 1008.5mb 34f 30f
9:42am 3 7 mph 1008.4mb 34f 30f
9:36am 6 7 mph 1008.6mb 34f 30f
9:30am 7 8 mph 1008.6mb 34f 30f
9:24am 7 8 mph 1008.7mb 34f 30f
9:18am 6
mph
1008.8mb 34f 31f
9:12am 6
mph
1008.8mb 34f 31f
9:06am 6
mph
1008.8mb 34f 31f
9:00am 5 6 mph 1009mb 34f 31f
8:54am 5 6 mph 1009mb 34f 32f
8:48am 6
mph
1009mb 34f 32f
8:42am 2 3 mph 1009mb 34f 32f
8:36am 1 2 mph 1009mb 34f 33f
8:30am 1 2 mph 1009mb 34f 33f
8:24am 2 3 mph 1009.1mb 34f 33f
8:18am 1 2 mph 1009.2mb 34f 33f
8:12am 1 2 mph 1009.3mb 34f 33f
8:06am 2
mph
1009.4mb 34f 33f
8:00am 1 3 mph 1009.5mb 34f 33f
7:54am 1 3 mph 1009.6mb 34f 33f
7:48am 2 5 mph 1009.6mb 34f 33f
7:42am 2 5 mph 1009.7mb 34f 33f
7:36am 3 5 mph 1009.8mb 34f 33f
7:30am 3 7 mph 1009.8mb 34f 33f
7:24am 6 9 mph 1009.9mb 34f 33f
7:18am 8 10 mph 1009.9mb 34f 33f
7:12am 9 14 mph 1010mb 34f 33f
7:06am 10 15 mph 1010mb 34f 34f
7:00am 14 16 mph 1010.1mb 34f 34f
6:54am 13 14 mph 1010.1mb 34f 34f
6:48am 13 15 mph 1010.2mb 34f 34f
6:42am 14 17 mph 1010.3mb 34f 34f
6:36am 16 18 mph 1010.5mb 34f 34f
6:30am 14 17 mph 1010.6mb 34f 34f
6:24am 15 18 mph 1010.6mb 34f 34f
6:18am 14 17 mph 1010.6mb 34f 35f
6:12am 14 18 mph 1010.7mb 34f 35f
6:06am 16 20 mph 1010.8mb 34f 35f
6:00am 15 20 mph 1010.8mb 34f 35f
5:54am 14 17 mph 1010.9mb 34f 35f
5:48am 14 17 mph 1010.9mb 34f 35f
5:42am 15 18 mph 1011mb 34f 35f
5:36am 14 17 mph 1011.2mb 34f 35f
5:30am 14 17 mph 1011.2mb 34f 35f
5:24am 13 16 mph 1011.3mb 34f 35f
5:18am 14 16 mph 1011.4mb 34f 35f
5:12am 14 16 mph 1011.4mb 34f 34f
5:06am 10 14 mph 1011.5mb 34f 34f
5:00am 11 16 mph 1011.6mb 34f 34f
4:54am 14 16 mph 1011.8mb 34f 34f
4:48am 13 17 mph 1011.8mb 34f 33f
4:42am 15 17 mph 1011.9mb 34f 34f
4:36am 14 17 mph 1011.9mb 34f 34f
4:30am 13 15 mph 1012mb 34f 34f
4:24am 14 16 mph 1012.1mb 34f 34f
4:18am 13 17 mph 1012.2mb 34f 34f
4:12am 13 17 mph 1012.3mb 34f 34f
4:06am 14 16 mph 1012.4mb 34f 34f
4:00am 14 16 mph 1012.5mb 34f 34f
3:54am 14 16 mph 1012.6mb 34f 34f
3:48am 13 16 mph 1012.7mb 33f 33f
3:42am 8 11 mph 1012.8mb 33f 32f
3:36am 6 7 mph 1012.8mb 32f 31f
3:30am 5 7 mph 1012.8mb 32f 31f
3:24am 7 8 mph 1013.1mb 32f 30f
3:18am 7 8 mph 1013.3mb 31f 30f
3:12am 7 13 mph 1013.5mb 31f 30f
3:06am 7 9 mph 1013.5mb 31f 30f
3:00am 8 16 mph 1013.7mb 32f 30f
2:54am 13 16 mph 1013.9mb 32f 31f
2:48am 15 16 mph 1014mb 32f 31f
2:42am 15 17 mph 1014mb 32f 31f
2:36am 14 17 mph 1014.1mb 32f 32f
2:30am 13 15 mph 1013.8mb 32f 32f
2:24am 10 11 mph 1014mb 32f 32f
2:18am 8 11 mph 1014mb 32f 32f
2:12am 3 7 mph 1014.2mb 32f 31f
2:06am 3 8 mph 1014.5mb 32f 31f
2:00am 3 5 mph 1014.7mb 32f 30f
1:54am 5 6 mph 1014.9mb 32f 30f
1:48am 3 5 mph 1015mb 33f -
1:42am 5 7 mph 1015.3mb 33f -
1:36am 6 8 mph 1015.5mb 33f -
1:30am 6 8 mph 1015.5mb 33f 29f
1:24am 6 8 mph 1015.7mb 33f 29f
1:18am 7 8 mph 1016mb 33f 29f
1:12am 6 8 mph 1016.2mb 33f 29f
1:06am 7 9 mph 1016.3mb 33f 29f
1:00am 7 8 mph 1016.2mb 33f 29f
12:54am 7 10 mph 1016.3mb 33f 29f
12:48am 7 9 mph 1016.4mb 33f 29f
12:42am 7 9 mph 1016.4mb 33f 29f
12:36am 7 8 mph 1016.4mb 33f 29f
12:30am 6 8 mph 1016.5mb 33f 29f
12:24am 7 8 mph 1016.5mb 33f 29f
12:18am 7 9 mph 1016.6mb 33f 29f
12:12am 7 8 mph 1016.8mb 33f 29f
12:06am 7 8 mph 1016.9mb 33f 29f
12:00am 6 8 mph 1016.9mb 33f 29f
Thu 01/29 11:54pm 8 9 mph 1017mb 33f 29f
11:48pm 7 8 mph 1017mb 33f 29f
11:42pm 7 9 mph 1017.2mb 33f 29f
11:36pm 5 6 mph 1017.2mb 33f 29f
11:30pm 2 6 mph 1017.4mb 33f 28f
11:24pm 5
mph
1017.8mb 33f 27f
11:18pm 2 3 mph 1017.8mb 33f 26f
11:12pm  -  3 mph 1017.7mb 33f 25f
11:06pm 2 3 mph 1017.9mb 33f 25f
11:00pm  -  1 mph 1017.9mb 33f 24f
10:54pm  -  1 mph 1017.8mb 33f 24f
10:48pm 1 2 mph 1017.8mb 33f 24f
10:42pm 2
mph
1017.7mb 33f 24f
10:36pm 1 2 mph 1017.8mb 34f 24f
10:30pm 1
mph
1017.7mb 34f 24f
10:24pm 2
mph
1017.7mb 34f 25f
10:18pm 3
mph
1017.7mb 33f 24f
10:12pm 3 5 mph 1017.6mb 33f 23f
10:06pm 3
mph
1017.6mb 33f 23f
10:00pm 2 3 mph 1017.6mb 34f 23f
9:54pm 2
mph
1017.7mb 34f 23f
9:48pm 2 3 mph 1017.8mb 34f 23f
9:42pm 2
mph
1017.9mb 34f 23f
9:36pm 2
mph
1018.2mb 34f 23f
9:30pm 2
mph
1018.3mb 34f 23f
9:24pm 1 2 mph 1018.4mb 34f 23f
9:18pm 1 2 mph 1018.6mb 34f 24f
9:12pm 2
mph
1018.7mb 34f 25f
9:06pm 2 3 mph 1018.9mb 34f 25f
9:00pm 3
mph
1018.9mb 34f 23f
8:54pm 3
mph
1018.9mb 34f 23f
8:48pm 2
mph
1019mb 34f 24f
8:42pm 2
mph
1019.1mb 34f 24f
8:36pm 1 2 mph 1019.1mb 34f 24f
8:30pm 2
mph
1019.2mb 34f 24f
8:24pm 2
mph
1019.4mb 34f 24f
8:18pm 2
mph
1019.4mb 34f 24f
8:12pm 1 2 mph 1019.6mb 34f 24f
8:06pm 1 2 mph 1019.7mb 34f 24f
8:00pm 1 2 mph 1019.9mb 34f 24f
7:54pm 1 2 mph 1019.9mb 34f 24f
7:48pm 1 2 mph 1020mb 34f 24f
7:42pm 2 3 mph 1020.1mb 34f 24f
7:36pm 2
mph
1020.1mb 34f 24f
7:30pm 2
mph
1020.2mb 34f 24f
7:24pm 2
mph
1020.3mb 34f 24f
7:18pm 1 2 mph 1020.4mb 34f 24f
7:12pm 1 2 mph 1020.5mb 34f 24f
7:06pm 1 2 mph 1020.5mb 34f 24f
7:00pm 1 2 mph 1020.6mb 34f 24f
6:54pm 1 2 mph 1020.6mb 34f 24f
6:48pm 1 2 mph 1020.6mb 34f 25f
6:42pm 2 5 mph 1020.8mb 34f 26f
6:36pm 5
mph
1020.8mb 34f 26f
6:30pm 3 5 mph 1020.8mb 34f 25f
6:24pm 3 5 mph 1020.7mb 34f 25f
6:18pm 2 3 mph 1020.7mb 34f 25f
6:12pm 3 5 mph 1020.7mb 34f 25f
6:06pm 3
mph
1020.8mb 34f 25f
6:00pm 3
mph
1020.8mb 34f 26f
5:54pm 3 5 mph 1020.9mb 34f 25f
5:48pm 2 3 mph 1020.8mb 34f 25f
5:42pm 3 5 mph 1020.8mb 34f 26f
5:36pm 3 5 mph 1020.8mb 34f 26f
5:30pm 3 5 mph 1020.9mb 34f 27f
5:24pm 3 5 mph 1020.9mb 34f 27f
5:18pm 2 5 mph 1020.9mb 34f 28f
5:12pm 3 6 mph 1021mb 34f 28f
5:06pm 3 6 mph 1021mb 34f 29f
5:00pm 3 6 mph 1021mb 34f 29f
4:54pm 5 7 mph 1021mb 34f 29f
4:48pm 6
mph
1021.2mb 34f 29f
4:42pm 5 6 mph 1021.2mb 34f 29f
4:36pm 6 8 mph 1021.2mb 34f 29f
4:30pm 6
mph
1021.2mb 34f 29f
4:24pm 6 7 mph 1021.3mb 34f 29f
4:18pm 3 6 mph 1021.3mb 34f 29f
4:12pm 5 6 mph 1021.3mb 34f 29f
4:06pm 6 7 mph 1021.3mb 34f 30f
4:00pm 5 6 mph 1021.4mb 33f 30f
3:54pm 3 6 mph 1021.3mb 32f 31f
3:48pm 5 6 mph 1021.4mb 32f 31f
3:42pm 3 5 mph 1021.5mb 31f 32f
3:36pm 3 5 mph 1021.6mb 31f 32f
3:30pm 5 6 mph 1021.6mb 30f 31f
3:24pm 6
mph
1021.8mb 30f 31f
3:18pm 5 6 mph 1021.8mb 30f 32f
3:12pm 3 5 mph 1021.8mb 30f 32f
3:06pm 3 6 mph 1021.8mb 30f 31f
3:00pm 5 6 mph 1022mb 29f 30f
2:54pm 6
mph
1022.2mb 29f 31f
2:48pm 6 7 mph 1022.4mb 29f 31f
2:42pm 6 7 mph 1022.4mb 29f 30f
2:36pm 6 7 mph 1022.4mb 29f 30f
2:30pm 6 7 mph 1022.5mb 29f 30f
2:24pm 6 8 mph 1022.7mb 29f 30f
2:18pm 6 7 mph 1022.8mb 30f 30f
2:12pm 6 8 mph 1022.8mb 30f 30f
2:06pm 6 8 mph 1022.7mb 30f 30f
2:00pm 6 9 mph 1022.8mb 30f 30f
1:54pm 7 8 mph 1022.7mb 31f 30f
1:48pm 6 7 mph 1022.6mb 31f 30f
1:30pm 5 7 mph 1022.6mb 31f 30f
1:24pm 6
mph
1022.6mb 31f 30f
1:18pm 5 7 mph 1022.8mb 31f 29f
1:12pm 5 6 mph 1023mb 31f 31f
1:06pm 3 6 mph 1023.2mb 31f 31f
1:00pm 3 5 mph 1023.2mb 31f 31f
12:54pm 3 5 mph 1023.3mb 31f 30f
12:48pm 2 3 mph 1023.4mb 31f 29f
12:42pm 2 3 mph 1023.4mb 31f 28f
12:36pm 2 5 mph 1023.5mb 31f 28f
12:30pm 3
mph
1023.7mb 31f 28f
12:24pm 3 5 mph 1023.8mb 31f 28f
12:18pm 3 5 mph 1023.9mb 31f 27f
12:12pm 5
mph
1023.9mb 32f 27f
12:06pm 3 5 mph 1024.1mb 32f 27f
12:00pm 3 5 mph 1024.3mb 32f 27f
11:54am 3 5 mph 1024.4mb 32f 27f
11:48am 3
mph
1024.6mb 32f 28f
11:42am 2 3 mph 1024.9mb 32f 28f
11:36am  -  2 mph 1024.9mb 32f 29f
11:30am 2 3 mph 1025.1mb 32f 29f
11:24am 2
mph
1025.2mb 32f 30f
11:18am 1 2 mph 1025.3mb 32f 29f
11:12am 1 2 mph 1025.4mb 32f 28f
11:06am  -  1 mph 1025.4mb 32f 26f
11:00am  -  1 mph 1025.5mb 32f 26f
10:54am 1 2 mph 1025.5mb 32f 25f
10:48am 1 2 mph 1025.7mb 32f 25f
10:00am 1 2 mph 1026mb 32f 20f
9:54am  -  2 mph 1026mb 32f 20f
9:48am  -  1 mph 1026mb 33f 20f
9:42am  -  1 mph 1026mb 33f 20f
9:36am  -  1 mph 1026mb 33f 19f
9:30am 1 3 mph 1026mb 33f 18f
9:24am 2 3 mph 1026mb 33f 17f
9:18am 1 2 mph 1026mb 32f 18f
9:12am  -  2 mph 1025.9mb 32f 19f
9:06am  -  2 mph 1025.9mb 32f 17f
9:00am  -  1 mph 1026mb 32f 17f
8:54am  -  2 mph 1025.9mb 33f 15f
8:48am  -  2 mph 1025.8mb 33f 14f
8:42am 2
mph
1025.7mb 33f 13f
8:36am  -  3 mph 1025.7mb 33f 13f
8:30am 2 3 mph 1025.8mb 33f 12f
8:24am 1 2 mph 1025.8mb 33f 12f
8:18am 3
mph
1025.8mb 33f 11f
8:12am 3
mph
1025.8mb 33f 11f
8:06am 1 3 mph 1025.8mb 33f 10f
8:00am 2 6 mph 1025.8mb 33f 9f
7:54am 5 7 mph 1025.6mb 33f 8f
7:48am 6 8 mph 1025.6mb 33f 7f
7:42am 5 6 mph 1025.4mb 33f 7f
7:36am 2 5 mph 1025.3mb 33f 6f
7:30am 3 5 mph 1025.3mb 33f 5f
7:24am 5
mph
1025.2mb 33f 4f
7:18am 5
mph
1025.1mb 33f 4f
7:12am 2 3 mph 1025mb 34f 4f
7:06am 2 3 mph 1025mb 34f 5f
7:00am 2
mph
1024.9mb 34f 5f
6:54am 2
mph
1025mb 34f 5f
6:48am  -  2 mph 1024.9mb 34f 5f
6:42am 1 3 mph 1024.9mb 34f 4f
6:36am 2
mph
1024.8mb 34f 6f
6:30am 1 2 mph 1024.7mb 34f 6f
6:24am 2 3 mph 1024.7mb 34f 6f
6:18am  -  1 mph 1024.6mb 34f 7f
6:12am 1 2 mph 1024.7mb 34f 7f
6:06am  -  1 mph 1024.8mb 34f 9f
6:00am  -  2 mph 1024.8mb 34f 8f
5:54am 1 3 mph 1024.7mb 34f 7f
5:48am 3 6 mph 1024.6mb 34f 6f
5:42am 5 6 mph 1024.6mb 34f 6f
5:36am 3 5 mph 1024.7mb 34f 7f
5:30am 2 3 mph 1024.7mb 34f 7f
5:24am 3 5 mph 1024.8mb 34f 7f
5:18am 2 3 mph 1024.9mb 34f 7f
5:12am 2 3 mph 1024.9mb 34f 9f
5:06am  -  2 mph 1024.9mb 34f 8f
5:00am 2 3 mph 1024.9mb 34f 8f
4:54am 2 3 mph 1024.8mb 34f 9f
4:48am 2 3 mph 1024.8mb 34f 10f
4:42am 2 3 mph 1024.8mb 34f 9f
4:36am 2 5 mph 1024.8mb 34f 9f
4:30am 3
mph
1024.9mb 34f 8f
4:24am  -  2 mph 1024.7mb 34f 9f
4:18am 2 5 mph 1024.5mb 34f 9f
4:12am 5 6 mph 1024.4mb 34f 10f
4:06am 1 2 mph 1024.2mb 34f 9f
4:00am 2 3 mph 1024.1mb 34f 8f
3:54am 2 3 mph 1024mb 34f 8f
3:48am 3
mph
1024mb 34f 10f
3:42am 2 3 mph 1024mb 34f 12f
3:36am  -  3 mph 1023.9mb 34f 12f
3:30am 2 3 mph 1024.1mb 34f 11f
3:24am 3 5 mph 1024mb 34f 11f
3:18am 5 7 mph 1023.8mb 34f 12f
3:12am 6 7 mph 1023.7mb 33f 12f
3:06am 6 7 mph 1023.9mb 33f 12f
3:00am 5 6 mph 1024mb 33f 12f
2:54am 5 6 mph 1023.9mb 32f 12f
2:48am 5 6 mph 1024mb 32f 12f
2:42am 5 6 mph 1024mb 31f 12f
2:36am 6 7 mph 1024mb 30f 12f
2:30am 6 7 mph 1024mb 29f 12f
2:24am 5 7 mph 1023.9mb 29f 12f
2:18am 6 10 mph 1023.9mb 29f 12f
2:12am 8 11 mph 1023.7mb 29f 13f
2:06am 8 10 mph 1023.8mb 29f 12f
2:00am 7 9 mph 1023.7mb 29f 12f
1:54am 5 7 mph 1023.7mb 29f 11f
1:48am  -  2 mph 1023.8mb 29f 10f
1:42am 2 3 mph 1023.8mb 29f 11f
1:36am 2 5 mph 1023.7mb 29f 11f
1:30am 3 5 mph 1023.7mb 30f 11f
1:24am  -  2 mph 1023.6mb 30f 11f
1:18am 2 3 mph 1023.6mb 30f 11f
1:12am 2 5 mph 1023.5mb 31f 11f
1:06am 2 3 mph 1023.4mb 31f 11f
1:00am 2 5 mph 1023.3mb 31f 11f
12:54am 5 6 mph 1023.3mb 32f 12f
12:48am 3 6 mph 1023.2mb 32f 12f
12:42am 3 5 mph 1023.1mb 32f 12f
12:36am 3 6 mph 1023mb 32f 12f
12:30am 3 7 mph 1022.9mb 32f 12f
12:24am 6 7 mph 1022.9mb 32f 12f
12:18am 7 9 mph 1022.8mb 32f 12f
12:12am 8 9 mph 1022.7mb 32f 12f
12:06am 5 6 mph 1022.7mb 32f 12f
12:00am 5 6 mph 1022.6mb 33f 12f
Wed 01/28 11:54pm 5
mph
1022.5mb 33f 13f
11:48pm 3 5 mph 1022.6mb 33f 13f
11:42pm 3
mph
1022.4mb 33f 13f
11:36pm 2 3 mph 1022.4mb 33f 14f
11:30pm 1 3 mph 1022.4mb 33f 13f
11:24pm 2 5 mph 1022.3mb 33f 13f
11:18pm  -  2 mph 1022.2mb 33f 13f
11:12pm 3 6 mph 1022.1mb 33f 13f
11:06pm 2 6 mph 1022mb 33f 14f
11:00pm 5 6 mph 1021.9mb 33f 14f
10:54pm 2 3 mph 1021.9mb 33f 14f
10:48pm 1 2 mph 1021.9mb 33f 15f
10:42pm 1 2 mph 1021.7mb 33f 15f
10:36pm 1 5 mph 1021.6mb 32f 15f
10:30pm 3 6 mph 1021.5mb 32f 15f
10:24pm 3 5 mph 1021.5mb 32f 15f
10:18pm 1 5 mph 1021.4mb 32f 15f
10:12pm 2 3 mph 1021.3mb 31f 15f
10:06pm 2 3 mph 1021.3mb 31f 16f
10:00pm 2
mph
1021.3mb 31f 16f
9:54pm  -  3 mph 1021.2mb 31f 17f
9:48pm 2 6 mph 1021.2mb 32f 17f
9:42pm 5 7 mph 1021.2mb 32f 17f
9:36pm 2 5 mph 1021.2mb 32f 17f
9:30pm 3 5 mph 1021.1mb 32f 17f
9:24pm 3 6 mph 1021mb 32f 17f
9:18pm 3 7 mph 1020.9mb 32f 18f
9:12pm 5 6 mph 1020.9mb 32f 18f
9:06pm 2 6 mph 1020.9mb 33f 18f
9:00pm 5 8 mph 1020.7mb - -
8:54pm 6 7 mph 1020.5mb - -
8:48pm 6 7 mph 1020.4mb 33f 18f
8:42pm 5 7 mph 1020.4mb 33f 19f
8:36pm 6 7 mph 1020.4mb 33f 19f
8:30pm 5 6 mph 1020.3mb 33f 19f
8:24pm 5 7 mph 1020.1mb 33f 19f
8:18pm 6 7 mph 1020mb - 19f
8:12pm 3 8 mph 1019.9mb - 20f
8:06pm 6 10 mph 1019.7mb - 20f
8:00pm 8 10 mph 1019.7mb 34f 20f
7:54pm 9 11 mph 1019.6mb 34f 20f
7:48pm 9 13 mph 1019.4mb 34f 20f
7:42pm 10 13 mph 1019.3mb 34f 20f
7:36pm 10 13 mph 1019.3mb 34f 20f
7:30pm 10 11 mph 1019.2mb 34f 21f
7:24pm 8 13 mph 1019.1mb 34f 21f
7:18pm 8 11 mph 1019mb 34f 21f
7:12pm 6 10 mph 1018.9mb 34f 21f
7:06pm 8 10 mph 1018.8mb 34f 21f
7:00pm 8 11 mph 1018.6mb 34f 21f
6:54pm 7 10 mph 1018.5mb 34f 21f
6:48pm 8 9 mph 1018.3mb 34f 21f
6:42pm 7 10 mph 1018.3mb 34f 21f
6:36pm 7 9 mph 1018.2mb 34f 22f
6:30pm 7 9 mph 1018mb 34f 22f
6:24pm 6 9 mph 1017.8mb 34f 22f
6:18pm 5 9 mph 1017.7mb 34f 22f
6:12pm 7 11 mph 1017.7mb 34f 23f
6:06pm 7 9 mph 1017.6mb 34f 23f
6:00pm 9 11 mph 1017.4mb 34f 23f
5:54pm 8 9 mph 1017.3mb 34f 23f
5:48pm 7 11 mph 1017.2mb 34f 23f
5:42pm 7 10 mph 1017.1mb 34f 24f
5:36pm 5 9 mph 1017mb 34f 24f
5:30pm 7 9 mph 1016.9mb 34f 24f
5:24pm 8 9 mph 1016.8mb 34f 24f
5:18pm 5 7 mph 1016.7mb 35f 25f
5:12pm 7 9 mph 1016.5mb 35f 25f
5:06pm 6 9 mph 1016.4mb 35f 25f
5:00pm  -  mph 1016.2mb 35f -
4:54pm  -  mph 1016.1mb 35f -
4:48pm 8 13 mph 1016mb 34f 25f
4:42pm 10 13 mph 1015.7mb 34f 26f
4:36pm 9 11 mph 1015.6mb 34f 26f
4:30pm 8 11 mph 1015.5mb 34f 26f
4:24pm 8 13 mph 1015.4mb 34f 26f
4:18pm  -  mph - 34f 26f
4:12pm  -  mph - 34f 26f
4:06pm  -  mph - 34f 26f
4:00pm 10 15 mph 1014.9mb 34f 26f
3:54pm 8 14 mph 1014.8mb 34f 27f
3:48pm 11 14 mph 1014.7mb 34f 27f
3:42pm 9 13 mph 1014.7mb 34f 27f
3:36pm 10 14 mph 1014.5mb 34f 27f
3:30pm 8 17 mph 1014.5mb 34f 28f
3:24pm 14 20 mph 1014.3mb 34f 28f
3:18pm 14 22 mph 1014.2mb 33f 28f
3:12pm 15 18 mph 1014.1mb 33f 28f
3:06pm 10 17 mph 1014.1mb 32f 27f
3:00pm 14 17 mph 1014mb 31f 27f
2:54pm 13 17 mph 1013.9mb 29f 27f
2:48pm 14 20 mph 1013.7mb 29f 27f
2:42pm 15 20 mph 1013.6mb - 27f
2:36pm 9 13 mph 1013.5mb - 27f
2:30pm 11 16 mph 1013.5mb - 27f
2:24pm 14 16 mph 1013.4mb - 27f
2:18pm 15 21 mph 1013.2mb - 27f
2:12pm 14 20 mph 1013.1mb - 27f
2:06pm 16 23 mph 1013.1mb - 26f
2:00pm 17 24 mph 1012.9mb - 26f
1:54pm 20 23 mph 1012.8mb - 26f
1:48pm 17 23 mph 1012.7mb - 26f
1:42pm 14 22 mph 1012.7mb - 26f
1:36pm 13 20 mph 1012.6mb - 26f
1:30pm 15 21 mph 1012.5mb - 26f
1:24pm 15 18 mph 1012.3mb - 26f
1:18pm 10 16 mph 1012.3mb - 26f
1:12pm 16 21 mph 1012.2mb - 25f
1:06pm 10 21 mph 1012.2mb 28f 26f
1:00pm  -  mph 1012.1mb 29f 25f
12:54pm  -  mph 1012.1mb 29f 24f
12:48pm 14 17 mph 1012.2mb 29f 24f
12:42pm 14 20 mph 1012mb 30f 24f
12:36pm 16 21 mph 1012.1mb 30f 24f
12:30pm 10 17 mph 1012.2mb 30f 24f
12:24pm 13 22 mph 1012.2mb 30f 24f
12:18pm 10 18 mph 1012.4mb 30f 24f
12:12pm 13 22 mph 1012.3mb 30f 23f
12:06pm 13 17 mph 1012.3mb 30f 23f
12:00pm 11 17 mph 1012.3mb 30f 22f
11:54am 14 21 mph 1012.3mb 30f 22f
11:48am 14 22 mph 1012.4mb 30f 22f
11:42am 15 21 mph 1012.4mb 30f 22f
11:36am 14 18 mph 1012.5mb 30f 22f
11:30am 11 16 mph 1012.4mb 30f 22f
11:24am 11 16 mph 1012.4mb 30f 22f
11:18am 11 15 mph 1012.5mb 31f 22f
11:12am 13 18 mph 1012.5mb 31f 21f
11:06am 13 18 mph 1012.6mb 31f 21f
11:00am  -  mph - - 21f
10:54am  -  mph - - 20f
10:48am 15 22 mph 1012.7mb 31f 21f
10:42am 15 21 mph 1012.7mb 31f 20f
10:36am 15 20 mph 1012.7mb 31f 20f
10:30am 15 22 mph 1012.7mb 31f 20f
10:24am 13 22 mph 1012.7mb 31f 20f
10:18am 14 20 mph 1012.6mb 31f 20f
10:12am 14 21 mph 1012.6mb 31f 20f
10:06am 14 21 mph 1012.5mb 31f 20f
10:00am 15 20 mph 1012.5mb 32f 19f
9:54am 16 21 mph 1012.3mb 31f 19f
9:48am 17 22 mph 1012.1mb 32f 19f
9:42am 15 21 mph 1012mb 32f 19f
9:36am 14 17 mph 1011.9mb 32f 19f
9:30am 10 16 mph 1011.9mb 32f 19f
9:24am 15 20 mph 1011.8mb 31f 19f
9:18am 10 15 mph 1011.6mb 31f 19f
9:12am 14 16 mph 1011.5mb 31f 19f
9:06am 10 15 mph 1011.4mb 30f 19f
9:00am 11 16 mph 1011.3mb 30f 18f
8:54am 11 14 mph 1011.2mb 30f 18f
8:48am 10 14 mph 1011.1mb 30f 18f
8:42am 11 16 mph 1011mb 30f 18f
8:36am 9 11 mph 1010.8mb 30f 18f
8:30am 9 11 mph 1010.7mb 31f 18f
8:24am 9 13 mph 1010.7mb 31f 18f
8:18am 8 13 mph 1010.5mb 31f 18f
8:12am 8 11 mph 1010.4mb 31f 18f
8:06am 8 11 mph 1010.3mb 31f 18f
8:00am 9 13 mph 1010.2mb 31f 18f
7:54am 8 10 mph 1010.1mb 32f 17f
7:48am 7 9 mph 1010mb 32f 17f
7:42am 7 10 mph 1009.9mb 32f 17f
7:36am 6 11 mph 1009.8mb 32f 17f
7:30am 6 9 mph 1009.6mb 32f 17f
7:24am 6 9 mph 1009.5mb 32f 17f
7:18am 6 10 mph 1009.3mb 33f 17f
7:12am 6 9 mph 1009.2mb 33f 17f
7:06am 7 10 mph 1009.1mb 33f 16f
7:00am 6 10 mph 1008.9mb 33f 16f
6:54am 7 9 mph 1008.7mb 33f 16f
6:48am 6 8 mph 1008.6mb 33f 17f
6:42am 7 10 mph 1008.5mb 33f 17f
6:36am 7 10 mph 1008.3mb 33f 17f
6:30am 9 13 mph 1008.2mb 33f 17f
6:24am 8 14 mph 1008.1mb 33f 17f
6:18am 13 17 mph 1007.9mb 33f 17f
6:12am 10 13 mph 1007.9mb 33f 17f
6:06am 10 13 mph 1007.8mb 33f 17f
6:00am 11 16 mph 1007.6mb 34f 17f
5:54am 9 15 mph 1007.5mb 34f 17f
5:48am 9 15 mph 1007.3mb - -
5:42am 10 15 mph 1007.1mb - -
5:36am 10 14 mph 1007mb - -
5:30am 13 16 mph 1006.9mb 34f 17f
5:24am 13 18 mph 1006.8mb 34f 17f
5:18am 11 18 mph 1006.7mb 34f 17f
5:12am 11 17 mph 1006.6mb 34f 17f
5:06am 14 20 mph 1006.5mb 34f 17f
5:00am 14 17 mph 1006.3mb 34f 17f
4:54am 15 21 mph 1006.3mb 34f 17f
4:48am 14 18 mph 1006.1mb 34f 17f
4:42am 14 23 mph 1006mb 34f 16f
4:36am 14 17 mph 1005.9mb 34f 16f
4:30am 15 18 mph 1005.9mb 34f 16f
4:24am 14 18 mph 1005.8mb 34f 16f
4:18am 14 18 mph 1005.7mb 34f 16f
4:12am 14 20 mph 1005.6mb 34f 16f
4:06am 14 22 mph 1005.5mb 34f 16f
4:00am 15 21 mph 1005.3mb 34f 16f
3:54am 15 24 mph 1005.3mb 34f 16f
3:48am 14 18 mph 1005.2mb 34f 16f
3:42am 15 22 mph 1005.1mb 34f 16f
3:36am 17 22 mph 1004.9mb 34f 16f
3:30am 14 22 mph 1004.8mb 34f 16f
3:24am 16 21 mph 1004.6mb 33f 16f
3:18am 15 18 mph 1004.5mb 34f 16f
3:12am 16 21 mph 1004.4mb 34f 16f
3:06am 16 20 mph 1004.4mb 34f 16f
3:00am 15 22 mph 1004.3mb 34f 16f
2:54am 15 21 mph 1004.2mb 34f 16f
2:48am 16 21 mph 1004.1mb 34f 16f
2:42am 17 22 mph 1004.1mb 34f 16f
2:36am 14 23 mph 1003.9mb 33f 16f
2:30am 15 25 mph 1003.8mb 34f 16f
2:24am 16 24 mph 1003.7mb 34f 16f
2:18am 18 24 mph 1003.6mb 34f 16f
2:12am 18 22 mph 1003.5mb 34f 16f
2:06am 16 22 mph 1003.6mb 33f 16f
2:00am 17 23 mph 1003.4mb 33f 16f
1:54am 17 22 mph 1003.4mb 33f 16f
1:48am 16 25 mph 1003.3mb 32f 16f
1:42am 17 22 mph 1003.1mb 30f 16f
1:36am 14 28 mph 1003.2mb 29f 16f
1:30am 17 23 mph 1003mb - 16f
1:24am 15 26 mph 1003mb - 16f
1:18am 18 26 mph 1002.8mb - 16f
1:12am 20 25 mph 1002.8mb - 16f
1:06am 16 32 mph 1002.8mb - 16f
1:00am 18 28 mph 1002.5mb - 16f
12:54am 20 28 mph 1002.5mb - 16f
12:48am 23 28 mph 1002.4mb - 16f
12:42am 16 24 mph 1002.5mb - 16f
12:36am 17 23 mph 1002.4mb - 16f
12:30am 22 29 mph 1002.5mb - 16f
12:24am 18 24 mph 1002.4mb - 16f
12:18am 20 31 mph 1002.4mb - 16f
12:12am 22 28 mph 1002.3mb - 16f
12:06am 21 28 mph 1002.3mb - 16f
12:00am 18 29 mph 1002.4mb - 16f
Tue 01/27 11:54pm 22 30 mph 1002.3mb - 16f
11:48pm 23 30 mph 1002.2mb 28f 16f
11:42pm 20 30 mph 1002.3mb 29f 16f
11:36pm 16 29 mph 1002.2mb 29f 16f
11:30pm 21 29 mph 1002mb 29f 16f
11:24pm 21 26 mph 1002mb 29f 16f
11:18pm 24 31 mph 1001.9mb 29f 16f
11:12pm 20 25 mph 1001.9mb 29f 16f
11:06pm 22 29 mph 1001.8mb 29f 16f
11:00pm 20 32 mph 1001.7mb 29f 16f
10:54pm 22 30 mph 1001.6mb 29f 16f
10:48pm 20 34 mph 1001.6mb 29f 16f
10:42pm 21 30 mph 1001.6mb 29f 16f
10:36pm 20 30 mph 1001.5mb 29f 16f
10:30pm 18 29 mph 1001.5mb 29f 15f
10:24pm 17 26 mph 1001.5mb 30f 15f
10:18pm 22 29 mph 1001.4mb 30f 16f
10:12pm 21 32 mph 1001.4mb 30f 15f
10:06pm 18 25 mph 1001.3mb 29f 15f
10:00pm 18 28 mph 1001.3mb 29f 15f
9:54pm 18 30 mph 1001.2mb 29f 15f
9:48pm 21 29 mph 1001.2mb 29f 15f
9:42pm 18 24 mph 1001.2mb - 15f
9:36pm 22 29 mph 1001.1mb 28f 15f
9:30pm 24 32 mph 1001mb 28f 15f
9:24pm 17 29 mph 1000.9mb 28f 15f
9:18pm 20 31 mph 1000.9mb - 15f
9:12pm 24 29 mph 1000.8mb - 15f
9:06pm 22 31 mph 1000.8mb - 15f
9:00pm 22 29 mph 1000.8mb - 15f
8:54pm 21 24 mph 1000.9mb - 15f
8:48pm 20 26 mph 1000.8mb - 15f
8:42pm 21 28 mph 1000.8mb - 15f
8:36pm 17 26 mph 1000.8mb - 16f
8:30pm 21 29 mph 1000.7mb - 16f
8:24pm 23 30 mph 1000.6mb - 16f
8:18pm 16 23 mph 1000.6mb - 16f
8:12pm 24 32 mph 1000.4mb - 16f
8:06pm 22 31 mph 1000.3mb 29f 16f
8:00pm 23 34 mph 1000.3mb 29f 16f
7:54pm 22 41 mph 1000.3mb 29f 17f
7:48pm 30 39 mph 1000.1mb 29f 17f
7:42pm 22 39 mph 1000.2mb 30f 17f
7:36pm 29 41 mph 999.9mb 30f 17f
7:30pm 31 44 mph 1000mb 31f 17f
7:24pm 32 41 mph 999.8mb 31f 17f
7:18pm 30 43 mph 999.8mb 31f 17f
7:12pm 28 40 mph 1000mb 31f 17f
7:06pm 31 41 mph 1000mb 31f 17f
7:00pm 28 43 mph 1000mb 31f 17f
6:54pm 31 38 mph 999.9mb 31f 17f
6:48pm 28 43 mph 999.8mb 32f 17f
6:42pm 37 45 mph 999.7mb 32f 17f
6:36pm 31 39 mph 999.8mb 32f 17f
6:30pm 32 51 mph 999.7mb 32f 17f
6:24pm 29 47 mph 999.7mb 32f 17f
6:18pm 29 45 mph 999.6mb 32f 17f
6:12pm 34 47 mph 999.4mb 33f 17f
6:06pm 34 52 mph 999.3mb 33f 17f
6:00pm 33 49 mph 999.3mb 33f 17f
5:54pm 30 45 mph 999.5mb 33f 17f
5:48pm 36 48 mph 999.3mb 33f 17f
5:42pm 30 48 mph 999.3mb 33f 17f
5:36pm 33 44 mph 999.2mb 33f 17f
5:30pm 31 40 mph 999.2mb 33f 18f
5:24pm 28 49 mph 999.2mb 33f 17f
5:18pm 31 41 mph 999mb 33f 17f
5:12pm 28 47 mph 999.1mb 33f 17f
5:06pm 36 45 mph 998.7mb 33f 17f
5:00pm 29 40 mph 998.9mb 33f 17f
4:54pm 33 45 mph 998.9mb 33f 17f
4:48pm 32 39 mph 998.8mb 33f 17f
4:42pm 28 36 mph 998.8mb 33f 17f
4:36pm 24 39 mph 998.9mb 33f 17f
4:30pm 33 41 mph 998.5mb 33f 17f
4:24pm 28 38 mph 998.5mb 33f 16f
4:18pm 28 39 mph 998.4mb 33f 17f
4:12pm 25 43 mph 998.4mb 34f 17f
4:06pm 29 37 mph 998.4mb 34f 16f
4:00pm 26 37 mph 998.4mb 34f 17f
3:54pm 25 38 mph 998.2mb 34f 16f
3:48pm 28 36 mph 998mb 34f 16f
3:42pm 26 46 mph 998.1mb 34f 16f
3:36pm 24 34 mph 997.9mb 34f 16f
3:30pm 25 36 mph 998mb 34f 16f
3:24pm 24 34 mph 998.1mb 34f 16f
3:18pm 22 33 mph 998.1mb 34f 16f
3:12pm 26 37 mph 998mb 34f 16f
3:06pm 22 40 mph 997.9mb 34f 15f
3:00pm 25 37 mph 997.7mb 34f 15f
2:54pm 22 29 mph 997.8mb 34f 15f
2:48pm 23 29 mph 997.9mb 34f 15f
2:42pm 23 33 mph 997.9mb 34f 15f
2:36pm 25 33 mph 997.9mb 34f 15f
2:30pm 23 32 mph 997.9mb 34f 15f
2:24pm 22 28 mph 998mb 34f 15f
2:18pm 20 29 mph 998.1mb 34f 15f
2:12pm 22 30 mph 998.1mb 34f 15f
2:06pm 23 29 mph 998.2mb 34f 14f
2:00pm 22 26 mph 998.1mb 34f 15f
1:54pm 17 24 mph 998.1mb 34f 14f
1:48pm 21 29 mph 998mb 34f 15f
1:42pm 23 32 mph 998mb 34f 15f
1:36pm 25 32 mph 997.9mb 34f 14f
1:30pm 25 34 mph 998mb 34f 14f
1:24pm 26 34 mph 998.1mb 34f 14f
1:18pm 22 29 mph 998.4mb 33f 14f
1:12pm 22 28 mph 998.4mb 31f 14f
1:06pm 21 28 mph 998.4mb 31f 14f
1:00pm 21 31 mph 998.6mb 30f 14f
12:54pm 23 31 mph 998.5mb 29f 14f
12:48pm 21 30 mph 998.7mb - 14f
12:42pm 22 28 mph 998.8mb - 13f
12:36pm 25 32 mph 998.8mb - 13f
12:30pm 21 29 mph 999mb - 13f
12:24pm 23 30 mph 999mb - 13f
12:18pm 21 30 mph 999.1mb - 13f
12:12pm 25 34 mph 999.1mb - 13f
12:06pm 24 32 mph 999.3mb - 13f
12:00pm 23 34 mph 999.4mb - 14f
11:54am 22 33 mph 999.4mb - 14f
11:48am 25 32 mph 999.4mb - 14f
11:42am 26 33 mph 999.6mb - 14f
11:36am 22 37 mph 999.7mb - 14f
11:30am 24 38 mph 999.8mb - 14f
11:24am 25 32 mph 999.9mb - 13f
11:18am 23 31 mph 1000.1mb - 13f
11:12am 28 37 mph 1000.2mb - 14f
11:06am 25 31 mph 1000.1mb - 13f
11:00am 25 33 mph 1000.3mb - 13f
10:54am 25 30 mph 1000.5mb - 14f
10:48am 28 37 mph 1000.7mb - 14f
10:42am 22 32 mph 1001mb - 13f
10:36am 24 32 mph 1001.2mb - 14f
10:30am 26 31 mph 1001.5mb - 13f
10:24am 25 33 mph 1001.6mb - 14f
10:18am 24 31 mph 1001.6mb - 13f
10:12am 22 36 mph 1001.9mb - 14f
10:06am 24 32 mph 1001.9mb - 13f
10:00am 24 32 mph 1001.9mb - 13f
9:54am 23 29 mph 1002mb - 13f
9:48am 25 33 mph 1002mb - 13f
9:42am 25 38 mph 1002mb - 13f
9:36am 23 36 mph 1002mb - 13f
9:30am 26 38 mph 1002mb - 13f
9:24am 24 37 mph 1001.8mb - 13f
9:18am 26 33 mph 1001.7mb - 13f
9:12am 25 36 mph 1001.8mb - 13f
9:06am 28 40 mph 1001.9mb - 13f
9:00am 28 41 mph 1001.8mb - 13f
8:54am 29 37 mph 1002.2mb - 13f
8:48am 28 39 mph 1002.1mb - 13f
8:42am 25 37 mph 1002.6mb - 13f
8:36am 28 34 mph 1002.9mb - 13f
8:30am 28 33 mph 1003.1mb - 13f
8:24am 25 31 mph 1003.3mb - 13f
8:18am 26 36 mph 1003.6mb - 13f
8:12am 25 37 mph 1003.5mb - 13f
8:06am 26 32 mph 1003.6mb - 12f
8:00am 23 37 mph 1004mb 29f 13f
7:54am 28 37 mph 1003.8mb 30f 13f
7:48am 29 36 mph 1003.8mb 29f 12f
7:42am 28 39 mph 1003.6mb 30f 13f
7:36am 30 41 mph 1003mb 30f 13f
7:30am 29 40 mph 1003.2mb 31f 13f
7:24am 32 41 mph 1003mb 31f 13f
7:18am 34 43 mph 1003.3mb 31f 13f
7:12am 30 39 mph 1003.4mb 31f 13f
7:06am 33 40 mph 1003.5mb 32f 13f
7:00am 29 41 mph 1003.4mb 32f 13f
6:54am 28 40 mph 1003.4mb 32f 13f
6:48am 32 43 mph 1003.6mb 33f 12f
6:42am 34 41 mph 1003.2mb 33f 12f
6:36am 36 43 mph 1003.2mb 33f 12f
6:30am 31 48 mph 1003.2mb 33f 12f
6:24am 28 41 mph 1003.6mb 33f 13f
6:18am 30 48 mph 1003.5mb 34f 12f
6:12am 29 43 mph 1003.4mb 34f 12f
6:06am 32 41 mph 1003.2mb 34f 13f
6:00am 33 44 mph 1003.4mb 34f 13f
5:54am 31 49 mph 1003.4mb 34f 12f
5:48am 33 51 mph 1003.5mb 34f 12f
5:42am 31 43 mph 1004mb 34f 13f
5:36am 32 40 mph 1004.2mb 34f 12f
5:30am 33 41 mph 1004.4mb 34f 12f
5:24am 29 38 mph 1004.7mb 34f 13f
5:18am 29 40 mph 1004.8mb 34f 12f
5:12am 32 46 mph 1004.9mb 35f 12f
5:06am 30 38 mph 1005.3mb 35f 12f
5:00am 32 38 mph 1005.7mb 35f 12f
4:54am 29 34 mph 1006.3mb 35f 13f
4:48am 30 37 mph 1006.6mb 35f 13f
4:42am 29 44 mph 1006.7mb 35f 13f
4:36am 26 33 mph 1006.6mb 35f 13f
4:30am 26 41 mph 1006.7mb 35f 13f
4:24am 26 38 mph 1006.8mb 35f 13f
4:18am 26 38 mph 1006.9mb 35f 13f
4:12am 26 43 mph 1006.8mb 35f 13f
4:06am 28 38 mph 1007mb 35f 13f
4:00am 29 38 mph 1007.2mb 35f 13f
3:54am 28 33 mph 1007.6mb 35f 13f
3:48am 29 38 mph 1007.6mb 35f 14f
3:42am 26 36 mph 1007.8mb 35f 14f
3:36am 26 34 mph 1008.2mb 35f 13f
3:30am 26 37 mph 1008.6mb 35f 13f
3:24am 24 33 mph 1008.9mb 35f 14f
3:18am 28 36 mph 1008.8mb 35f 13f
3:12am 24 32 mph 1009mb 35f 13f
3:06am 28 36 mph 1008.8mb 35f 13f
3:00am 25 39 mph 1008.4mb 35f 13f
2:54am 24 29 mph 1008.4mb 35f 13f
2:48am 28 37 mph 1008.7mb 35f 13f
2:42am 28 33 mph 1008.8mb 35f 13f
2:36am 26 31 mph 1008.9mb 35f 13f
2:30am 26 31 mph 1009.4mb 35f 13f
2:24am 25 31 mph 1009.6mb 35f 13f
2:18am 28 36 mph 1009.5mb 35f 13f
2:12am 25 32 mph 1009.8mb 35f 13f
2:06am 23 33 mph 1009.8mb 35f 13f
2:00am 24 30 mph 1010.3mb 35f 13f
1:54am 23 32 mph 1010.6mb 35f 13f
1:48am 22 31 mph 1010.3mb 35f 13f
1:42am 20 29 mph 1010.5mb 35f 13f
1:36am 22 32 mph 1010.9mb 35f 14f
1:30am 24 30 mph 1010.9mb 35f 14f
1:24am 23 30 mph 1011.3mb 35f 14f
1:18am 25 32 mph 1011.4mb 35f 14f
1:12am 22 28 mph 1011.6mb 35f 15f
1:06am 21 29 mph 1011.9mb 35f 15f